sensor_id;sensor_type;location;lat;lon;timestamp;temperature;humidity
674;DHT22;319;48.764;9.174;2024-03-02T00:04:04;8.90;99.90
674;DHT22;319;48.764;9.174;2024-03-02T00:08:59;8.50;99.90
674;DHT22;319;48.764;9.174;2024-03-02T00:11:26;9.50;99.90
674;DHT22;319;48.764;9.174;2024-03-02T00:16:22;9.40;99.90
674;DHT22;319;48.764;9.174;2024-03-02T00:21:17;9.00;99.90
674;DHT22;319;48.764;9.174;2024-03-02T00:23:45;9.80;99.90
674;DHT22;319;48.764;9.174;2024-03-02T00:26:12;8.80;99.90
674;DHT22;319;48.764;9.174;2024-03-02T00:28:40;8.80;99.90
674;DHT22;319;48.764;9.174;2024-03-02T00:31:10;8.80;99.90
674;DHT22;319;48.764;9.174;2024-03-02T00:33:41;9.00;99.90
674;DHT22;319;48.764;9.174;2024-03-02T00:36:11;9.00;99.90
674;DHT22;319;48.764;9.174;2024-03-02T00:38:44;9.30;99.90
674;DHT22;319;48.764;9.174;2024-03-02T00:41:17;9.00;99.90
674;DHT22;319;48.764;9.174;2024-03-02T00:43:56;8.90;99.90
674;DHT22;319;48.764;9.174;2024-03-02T00:46:24;9.20;99.90
674;DHT22;319;48.764;9.174;2024-03-02T00:48:57;8.90;99.90
674;DHT22;319;48.764;9.174;2024-03-02T00:51:25;9.00;99.90
674;DHT22;319;48.764;9.174;2024-03-02T00:53:53;9.00;99.90
674;DHT22;319;48.764;9.174;2024-03-02T00:56:22;8.80;99.90
674;DHT22;319;48.764;9.174;2024-03-02T00:58:49;8.80;99.90
674;DHT22;319;48.764;9.174;2024-03-02T01:01:16;8.60;99.90
674;DHT22;319;48.764;9.174;2024-03-02T01:06:12;8.20;99.90
674;DHT22;319;48.764;9.174;2024-03-02T01:18:28;8.90;99.90
674;DHT22;319;48.764;9.174;2024-03-02T01:23:24;9.10;99.90
674;DHT22;319;48.764;9.174;2024-03-02T01:25:51;9.00;99.90
674;DHT22;319;48.764;9.174;2024-03-02T01:28:18;9.30;99.90
674;DHT22;319;48.764;9.174;2024-03-02T01:30:46;9.10;99.90
674;DHT22;319;48.764;9.174;2024-03-02T01:35:40;8.90;99.90
674;DHT22;319;48.764;9.174;2024-03-02T01:40:36;8.70;99.90
674;DHT22;319;48.764;9.174;2024-03-02T01:43:04;8.20;99.90
674;DHT22;319;48.764;9.174;2024-03-02T01:47:58;8.70;99.90
674;DHT22;319;48.764;9.174;2024-03-02T01:50:27;8.20;99.90
674;DHT22;319;48.764;9.174;2024-03-02T01:52:55;9.00;99.90
674;DHT22;319;48.764;9.174;2024-03-02T01:55:22;8.80;99.90
674;DHT22;319;48.764;9.174;2024-03-02T01:57:50;9.00;99.90
674;DHT22;319;48.764;9.174;2024-03-02T02:00:18;8.60;99.90
674;DHT22;319;48.764;9.174;2024-03-02T02:02:46;8.90;99.90
674;DHT22;319;48.764;9.174;2024-03-02T02:05:13;8.60;99.90
674;DHT22;319;48.764;9.174;2024-03-02T02:07:41;9.10;99.90
674;DHT22;319;48.764;9.174;2024-03-02T02:10:09;8.70;99.90
674;DHT22;319;48.764;9.174;2024-03-02T02:15:24;8.70;99.90
674;DHT22;319;48.764;9.174;2024-03-02T02:17:51;8.30;99.90
674;DHT22;319;48.764;9.174;2024-03-02T02:23:00;8.40;99.90
674;DHT22;319;48.764;9.174;2024-03-02T02:25:30;8.40;99.90
674;DHT22;319;48.764;9.174;2024-03-02T02:27:59;8.50;99.90
674;DHT22;319;48.764;9.174;2024-03-02T02:30:27;8.30;99.90
674;DHT22;319;48.764;9.174;2024-03-02T02:32:55;8.70;99.90
674;DHT22;319;48.764;9.174;2024-03-02T02:35:22;8.40;99.90
674;DHT22;319;48.764;9.174;2024-03-02T02:37:49;8.20;99.90
674;DHT22;319;48.764;9.174;2024-03-02T02:40:18;8.40;99.90
674;DHT22;319;48.764;9.174;2024-03-02T02:42:45;8.40;99.90
674;DHT22;319;48.764;9.174;2024-03-02T02:45:12;8.20;99.90
674;DHT22;319;48.764;9.174;2024-03-02T02:47:40;8.20;99.90
674;DHT22;319;48.764;9.174;2024-03-02T02:50:07;8.20;99.90
674;DHT22;319;48.764;9.174;2024-03-02T02:52:35;8.30;99.90
674;DHT22;319;48.764;9.174;2024-03-02T02:55:06;8.10;99.90
674;DHT22;319;48.764;9.174;2024-03-02T02:57:35;7.80;99.90
674;DHT22;319;48.764;9.174;2024-03-02T03:00:07;8.30;99.90
674;DHT22;319;48.764;9.174;2024-03-02T03:05:08;7.80;99.90
674;DHT22;319;48.764;9.174;2024-03-02T03:10:03;7.70;99.90
674;DHT22;319;48.764;9.174;2024-03-02T03:12:33;7.50;99.90
674;DHT22;319;48.764;9.174;2024-03-02T03:15:00;7.70;99.90
674;DHT22;319;48.764;9.174;2024-03-02T03:17:34;7.60;99.90
674;DHT22;319;48.764;9.174;2024-03-02T03:20:05;7.50;99.90
674;DHT22;319;48.764;9.174;2024-03-02T03:29:59;7.20;99.90
674;DHT22;319;48.764;9.174;2024-03-02T03:34:53;7.40;99.90
674;DHT22;319;48.764;9.174;2024-03-02T03:39:47;7.40;99.90
674;DHT22;319;48.764;9.174;2024-03-02T03:44:41;7.30;99.90
674;DHT22;319;48.764;9.174;2024-03-02T03:47:09;7.40;99.90
674;DHT22;319;48.764;9.174;2024-03-02T03:49:36;7.50;99.90
674;DHT22;319;48.764;9.174;2024-03-02T03:52:04;7.20;99.90
674;DHT22;319;48.764;9.174;2024-03-02T03:54:31;7.10;99.90
674;DHT22;319;48.764;9.174;2024-03-02T03:56:58;7.20;99.90
674;DHT22;319;48.764;9.174;2024-03-02T03:59:24;7.10;99.90
674;DHT22;319;48.764;9.174;2024-03-02T04:01:51;7.10;99.90
674;DHT22;319;48.764;9.174;2024-03-02T04:04:20;7.80;99.90
674;DHT22;319;48.764;9.174;2024-03-02T04:06:47;7.20;99.90
674;DHT22;319;48.764;9.174;2024-03-02T04:11:41;7.20;99.90
674;DHT22;319;48.764;9.174;2024-03-02T04:16:35;7.20;99.90
674;DHT22;319;48.764;9.174;2024-03-02T04:21:31;7.00;99.90
674;DHT22;319;48.764;9.174;2024-03-02T04:26:25;7.00;99.90
674;DHT22;319;48.764;9.174;2024-03-02T04:28:52;7.10;99.90
674;DHT22;319;48.764;9.174;2024-03-02T04:31:19;7.10;99.90
674;DHT22;319;48.764;9.174;2024-03-02T04:33:46;7.10;99.90
674;DHT22;319;48.764;9.174;2024-03-02T04:36:16;6.80;99.90
674;DHT22;319;48.764;9.174;2024-03-02T04:38:45;6.90;99.90
674;DHT22;319;48.764;9.174;2024-03-02T04:43:39;7.10;99.90
674;DHT22;319;48.764;9.174;2024-03-02T04:46:09;7.00;99.90
674;DHT22;319;48.764;9.174;2024-03-02T04:48:36;7.00;99.90
674;DHT22;319;48.764;9.174;2024-03-02T04:51:03;6.80;99.90
674;DHT22;319;48.764;9.174;2024-03-02T04:53:30;7.00;99.90
674;DHT22;319;48.764;9.174;2024-03-02T04:55:58;6.80;99.90
674;DHT22;319;48.764;9.174;2024-03-02T04:58:46;6.80;99.90
674;DHT22;319;48.764;9.174;2024-03-02T05:06:09;6.80;99.90
674;DHT22;319;48.764;9.174;2024-03-02T05:18:40;6.60;99.90
674;DHT22;319;48.764;9.174;2024-03-02T05:23:34;6.60;99.90
674;DHT22;319;48.764;9.174;2024-03-02T05:26:06;6.60;99.90
674;DHT22;319;48.764;9.174;2024-03-02T05:33:28;6.60;99.90
674;DHT22;319;48.764;9.174;2024-03-02T05:43:20;6.70;99.90
674;DHT22;319;48.764;9.174;2024-03-02T05:48:14;7.00;99.90
674;DHT22;319;48.764;9.174;2024-03-02T05:58:03;6.40;99.90
674;DHT22;319;48.764;9.174;2024-03-02T06:10:36;6.50;99.90
674;DHT22;319;48.764;9.174;2024-03-02T06:13:03;7.10;99.90
674;DHT22;319;48.764;9.174;2024-03-02T06:15:30;6.40;99.90
674;DHT22;319;48.764;9.174;2024-03-02T06:17:59;6.30;99.90
674;DHT22;319;48.764;9.174;2024-03-02T06:20:26;6.50;99.90
674;DHT22;319;48.764;9.174;2024-03-02T06:22:56;6.60;99.90
674;DHT22;319;48.764;9.174;2024-03-02T06:25:23;6.70;99.90
674;DHT22;319;48.764;9.174;2024-03-02T06:27:50;6.50;99.90
674;DHT22;319;48.764;9.174;2024-03-02T06:32:44;6.50;99.90
674;DHT22;319;48.764;9.174;2024-03-02T06:35:12;6.70;99.90
674;DHT22;319;48.764;9.174;2024-03-02T06:37:39;6.90;99.90
674;DHT22;319;48.764;9.174;2024-03-02T06:40:07;6.30;99.90
674;DHT22;319;48.764;9.174;2024-03-02T06:42:34;7.00;99.90
674;DHT22;319;48.764;9.174;2024-03-02T06:45:02;7.00;99.90
674;DHT22;319;48.764;9.174;2024-03-02T06:49:56;7.00;99.90
674;DHT22;319;48.764;9.174;2024-03-02T06:52:25;7.10;99.90
674;DHT22;319;48.764;9.174;2024-03-02T06:59:46;7.50;99.90
674;DHT22;319;48.764;9.174;2024-03-02T07:04:42;7.90;99.90
674;DHT22;319;48.764;9.174;2024-03-02T07:07:10;7.80;99.90
674;DHT22;319;48.764;9.174;2024-03-02T07:09:39;8.00;99.90
674;DHT22;319;48.764;9.174;2024-03-02T07:12:08;8.20;99.90
674;DHT22;319;48.764;9.174;2024-03-02T07:20:11;8.40;99.90
674;DHT22;319;48.764;9.174;2024-03-02T07:22:38;8.50;99.90
674;DHT22;319;48.764;9.174;2024-03-02T07:25:07;8.60;99.90
674;DHT22;319;48.764;9.174;2024-03-02T07:30:01;9.20;99.90
674;DHT22;319;48.764;9.174;2024-03-02T07:32:28;8.80;99.90
674;DHT22;319;48.764;9.174;2024-03-02T07:37:23;9.50;99.90
674;DHT22;319;48.764;9.174;2024-03-02T07:39:49;9.70;99.90
674;DHT22;319;48.764;9.174;2024-03-02T07:42:18;9.60;99.90
674;DHT22;319;48.764;9.174;2024-03-02T07:49:40;10.20;99.90
674;DHT22;319;48.764;9.174;2024-03-02T07:54:34;9.90;99.90
674;DHT22;319;48.764;9.174;2024-03-02T07:57:02;10.00;99.90
674;DHT22;319;48.764;9.174;2024-03-02T07:59:30;10.50;99.90
674;DHT22;319;48.764;9.174;2024-03-02T08:01:58;10.50;99.90
674;DHT22;319;48.764;9.174;2024-03-02T08:06:52;10.40;99.90
674;DHT22;319;48.764;9.174;2024-03-02T08:11:47;10.70;99.90
674;DHT22;319;48.764;9.174;2024-03-02T08:16:43;10.90;99.50
674;DHT22;319;48.764;9.174;2024-03-02T08:24:05;10.80;99.90
674;DHT22;319;48.764;9.174;2024-03-02T08:26:32;11.20;99.90
674;DHT22;319;48.764;9.174;2024-03-02T08:29:02;11.20;99.90
674;DHT22;319;48.764;9.174;2024-03-02T08:31:44;11.70;99.90
674;DHT22;319;48.764;9.174;2024-03-02T08:34:11;11.70;99.90
674;DHT22;319;48.764;9.174;2024-03-02T08:36:38;11.70;99.90
674;DHT22;319;48.764;9.174;2024-03-02T08:39:08;12.00;99.90
674;DHT22;319;48.764;9.174;2024-03-02T08:41:41;11.90;99.90
674;DHT22;319;48.764;9.174;2024-03-02T08:44:08;12.50;99.90
674;DHT22;319;48.764;9.174;2024-03-02T08:46:35;14.10;99.90
674;DHT22;319;48.764;9.174;2024-03-02T08:49:04;14.20;99.90
674;DHT22;319;48.764;9.174;2024-03-02T08:51:31;14.40;99.90
674;DHT22;319;48.764;9.174;2024-03-02T08:53:58;14.70;93.40
674;DHT22;319;48.764;9.174;2024-03-02T08:56:25;15.40;92.10
674;DHT22;319;48.764;9.174;2024-03-02T08:58:53;16.30;90.50
674;DHT22;319;48.764;9.174;2024-03-02T09:01:20;16.90;87.80
674;DHT22;319;48.764;9.174;2024-03-02T09:03:46;17.00;85.70
674;DHT22;319;48.764;9.174;2024-03-02T09:06:16;17.20;84.20
674;DHT22;319;48.764;9.174;2024-03-02T09:08:43;17.70;81.90
674;DHT22;319;48.764;9.174;2024-03-02T09:11:10;18.20;80.00
674;DHT22;319;48.764;9.174;2024-03-02T09:13:38;18.00;78.20
674;DHT22;319;48.764;9.174;2024-03-02T09:16:05;18.20;78.80
674;DHT22;319;48.764;9.174;2024-03-02T09:20:59;17.40;78.40
674;DHT22;319;48.764;9.174;2024-03-02T09:23:28;17.60;78.60
674;DHT22;319;48.764;9.174;2024-03-02T09:25:54;17.60;95.90
674;DHT22;319;48.764;9.174;2024-03-02T09:28:21;17.60;79.30
674;DHT22;319;48.764;9.174;2024-03-02T09:30:48;17.30;78.80
674;DHT22;319;48.764;9.174;2024-03-02T09:33:15;16.90;79.20
674;DHT22;319;48.764;9.174;2024-03-02T09:35:42;16.40;79.90
674;DHT22;319;48.764;9.174;2024-03-02T09:38:09;16.10;82.00
674;DHT22;319;48.764;9.174;2024-03-02T09:40:37;15.80;82.80
674;DHT22;319;48.764;9.174;2024-03-02T09:43:04;15.40;84.20
674;DHT22;319;48.764;9.174;2024-03-02T09:45:31;15.10;85.70
674;DHT22;319;48.764;9.174;2024-03-02T09:47:58;14.90;87.00
674;DHT22;319;48.764;9.174;2024-03-02T09:50:26;14.70;98.00
674;DHT22;319;48.764;9.174;2024-03-02T09:52:53;14.60;88.10
674;DHT22;319;48.764;9.174;2024-03-02T09:55:20;14.40;88.40
674;DHT22;319;48.764;9.174;2024-03-02T09:57:48;14.20;88.70
674;DHT22;319;48.764;9.174;2024-03-02T10:00:16;14.30;89.40
674;DHT22;319;48.764;9.174;2024-03-02T10:02:43;14.20;89.00
674;DHT22;319;48.764;9.174;2024-03-02T10:05:11;14.20;89.10
674;DHT22;319;48.764;9.174;2024-03-02T10:07:38;14.30;88.90
674;DHT22;319;48.764;9.174;2024-03-02T10:10:15;14.30;88.80
674;DHT22;319;48.764;9.174;2024-03-02T10:12:42;14.40;87.90
674;DHT22;319;48.764;9.174;2024-03-02T10:15:11;14.40;88.00
674;DHT22;319;48.764;9.174;2024-03-02T10:17:38;14.50;88.40
674;DHT22;319;48.764;9.174;2024-03-02T10:20:22;14.60;88.00
674;DHT22;319;48.764;9.174;2024-03-02T10:22:50;14.80;87.50
674;DHT22;319;48.764;9.174;2024-03-02T10:25:29;14.80;87.00
674;DHT22;319;48.764;9.174;2024-03-02T10:27:58;14.90;87.10
674;DHT22;319;48.764;9.174;2024-03-02T10:30:27;14.80;87.00
674;DHT22;319;48.764;9.174;2024-03-02T10:32:54;14.60;94.80
674;DHT22;319;48.764;9.174;2024-03-02T10:35:22;14.80;89.90
674;DHT22;319;48.764;9.174;2024-03-02T10:37:52;14.90;88.80
674;DHT22;319;48.764;9.174;2024-03-02T10:40:21;14.90;87.80
674;DHT22;319;48.764;9.174;2024-03-02T10:42:49;15.00;88.00
674;DHT22;319;48.764;9.174;2024-03-02T10:45:17;15.10;88.10
674;DHT22;319;48.764;9.174;2024-03-02T10:47:58;15.10;88.10
674;DHT22;319;48.764;9.174;2024-03-02T10:50:27;15.10;88.40
674;DHT22;319;48.764;9.174;2024-03-02T10:55:21;15.00;88.50
674;DHT22;319;48.764;9.174;2024-03-02T10:57:51;15.20;89.50
674;DHT22;319;48.764;9.174;2024-03-02T11:00:19;15.30;89.50
674;DHT22;319;48.764;9.174;2024-03-02T11:02:52;15.50;89.50
674;DHT22;319;48.764;9.174;2024-03-02T11:05:27;15.50;89.00
674;DHT22;319;48.764;9.174;2024-03-02T11:08:00;15.50;88.30
674;DHT22;319;48.764;9.174;2024-03-02T11:10:33;15.50;87.70
674;DHT22;319;48.764;9.174;2024-03-02T11:13:04;15.60;87.70
674;DHT22;319;48.764;9.174;2024-03-02T11:15:31;15.70;86.40
674;DHT22;319;48.764;9.174;2024-03-02T11:18:02;15.60;97.60
674;DHT22;319;48.764;9.174;2024-03-02T11:20:31;15.70;87.20
674;DHT22;319;48.764;9.174;2024-03-02T11:23:04;15.80;86.30
674;DHT22;319;48.764;9.174;2024-03-02T11:25:32;15.80;84.20
674;DHT22;319;48.764;9.174;2024-03-02T11:28:00;15.80;83.40
674;DHT22;319;48.764;9.174;2024-03-02T11:30:51;15.70;83.10
674;DHT22;319;48.764;9.174;2024-03-02T11:33:26;15.80;81.80
674;DHT22;319;48.764;9.174;2024-03-02T11:35:57;15.70;79.90
674;DHT22;319;48.764;9.174;2024-03-02T11:38:33;15.70;79.70
674;DHT22;319;48.764;9.174;2024-03-02T11:41:02;15.70;80.00
674;DHT22;319;48.764;9.174;2024-03-02T11:43:30;15.90;79.10
674;DHT22;319;48.764;9.174;2024-03-02T11:45:59;15.90;77.90
674;DHT22;319;48.764;9.174;2024-03-02T11:48:31;16.10;78.10
674;DHT22;319;48.764;9.174;2024-03-02T11:50:59;16.20;77.40
674;DHT22;319;48.764;9.174;2024-03-02T11:53:27;16.20;77.10
674;DHT22;319;48.764;9.174;2024-03-02T11:55:56;16.20;77.50
674;DHT22;319;48.764;9.174;2024-03-02T11:58:23;16.20;77.80
674;DHT22;319;48.764;9.174;2024-03-02T12:00:52;16.30;78.10
674;DHT22;319;48.764;9.174;2024-03-02T12:03:21;16.20;77.80
674;DHT22;319;48.764;9.174;2024-03-02T12:05:50;16.10;75.30
674;DHT22;319;48.764;9.174;2024-03-02T12:08:17;16.00;75.10
674;DHT22;319;48.764;9.174;2024-03-02T12:10:56;15.90;76.20
674;DHT22;319;48.764;9.174;2024-03-02T12:13:23;16.00;77.60
674;DHT22;319;48.764;9.174;2024-03-02T12:15:53;16.00;78.40
674;DHT22;319;48.764;9.174;2024-03-02T12:18:21;16.20;79.20
674;DHT22;319;48.764;9.174;2024-03-02T12:20:50;16.40;78.50
674;DHT22;319;48.764;9.174;2024-03-02T12:23:18;16.60;77.90
674;DHT22;319;48.764;9.174;2024-03-02T12:28:14;16.90;74.80
674;DHT22;319;48.764;9.174;2024-03-02T12:30:42;17.00;75.90
674;DHT22;319;48.764;9.174;2024-03-02T12:33:11;16.90;90.70
674;DHT22;319;48.764;9.174;2024-03-02T12:35:38;17.00;73.60
674;DHT22;319;48.764;9.174;2024-03-02T12:38:06;17.00;73.10
674;DHT22;319;48.764;9.174;2024-03-02T12:40:34;16.90;73.80
674;DHT22;319;48.764;9.174;2024-03-02T12:43:02;16.80;74.00
674;DHT22;319;48.764;9.174;2024-03-02T12:45:29;16.80;73.90
674;DHT22;319;48.764;9.174;2024-03-02T12:47:56;16.90;74.90
674;DHT22;319;48.764;9.174;2024-03-02T12:50:25;16.80;75.40
674;DHT22;319;48.764;9.174;2024-03-02T12:52:52;17.00;74.60
674;DHT22;319;48.764;9.174;2024-03-02T12:55:22;17.00;73.30
674;DHT22;319;48.764;9.174;2024-03-02T12:57:50;17.10;73.30
674;DHT22;319;48.764;9.174;2024-03-02T13:00:18;17.40;73.80
674;DHT22;319;48.764;9.174;2024-03-02T13:02:46;17.40;73.90
674;DHT22;319;48.764;9.174;2024-03-02T13:05:13;17.30;73.00
674;DHT22;319;48.764;9.174;2024-03-02T13:07:40;17.20;73.00
674;DHT22;319;48.764;9.174;2024-03-02T13:10:07;17.10;72.80
674;DHT22;319;48.764;9.174;2024-03-02T13:12:36;17.20;73.30
674;DHT22;319;48.764;9.174;2024-03-02T13:15:04;17.30;73.30
674;DHT22;319;48.764;9.174;2024-03-02T13:17:31;17.40;90.80
674;DHT22;319;48.764;9.174;2024-03-02T13:20:00;17.30;73.70
674;DHT22;319;48.764;9.174;2024-03-02T13:22:29;17.20;72.50
674;DHT22;319;48.764;9.174;2024-03-02T13:24:56;17.00;72.30
674;DHT22;319;48.764;9.174;2024-03-02T13:27:23;16.90;72.60
674;DHT22;319;48.764;9.174;2024-03-02T13:29:55;16.80;73.10
674;DHT22;319;48.764;9.174;2024-03-02T13:32:22;16.90;73.50
674;DHT22;319;48.764;9.174;2024-03-02T13:34:51;17.00;73.50
674;DHT22;319;48.764;9.174;2024-03-02T13:37:18;17.10;73.30
674;DHT22;319;48.764;9.174;2024-03-02T13:39:45;17.10;72.40
674;DHT22;319;48.764;9.174;2024-03-02T13:42:12;17.20;72.40
674;DHT22;319;48.764;9.174;2024-03-02T13:44:41;17.20;72.50
674;DHT22;319;48.764;9.174;2024-03-02T13:47:12;17.20;72.40
674;DHT22;319;48.764;9.174;2024-03-02T13:49:39;17.20;72.00
674;DHT22;319;48.764;9.174;2024-03-02T13:52:09;17.20;71.30
674;DHT22;319;48.764;9.174;2024-03-02T13:54:39;17.30;71.40
674;DHT22;319;48.764;9.174;2024-03-02T13:57:06;17.30;71.60
674;DHT22;319;48.764;9.174;2024-03-02T13:59:34;17.30;71.20
674;DHT22;319;48.764;9.174;2024-03-02T14:02:01;17.30;70.90
674;DHT22;319;48.764;9.174;2024-03-02T14:04:31;17.40;70.80
674;DHT22;319;48.764;9.174;2024-03-02T14:06:59;17.30;70.90
674;DHT22;319;48.764;9.174;2024-03-02T14:09:26;17.30;71.20
674;DHT22;319;48.764;9.174;2024-03-02T14:11:54;17.30;71.50
674;DHT22;319;48.764;9.174;2024-03-02T14:14:21;17.10;70.20
674;DHT22;319;48.764;9.174;2024-03-02T14:16:48;17.00;70.40
674;DHT22;319;48.764;9.174;2024-03-02T14:19:15;17.10;86.40
674;DHT22;319;48.764;9.174;2024-03-02T14:21:43;17.00;69.50
674;DHT22;319;48.764;9.174;2024-03-02T14:24:11;17.10;69.90
674;DHT22;319;48.764;9.174;2024-03-02T14:26:38;17.10;70.00
674;DHT22;319;48.764;9.174;2024-03-02T14:29:05;17.10;86.70
674;DHT22;319;48.764;9.174;2024-03-02T14:31:32;17.10;70.10
674;DHT22;319;48.764;9.174;2024-03-02T14:33:59;17.10;70.30
674;DHT22;319;48.764;9.174;2024-03-02T14:36:27;17.10;70.40
674;DHT22;319;48.764;9.174;2024-03-02T14:38:55;17.10;70.20
674;DHT22;319;48.764;9.174;2024-03-02T14:41:22;17.10;68.80
674;DHT22;319;48.764;9.174;2024-03-02T14:43:50;17.10;66.30
674;DHT22;319;48.764;9.174;2024-03-02T14:46:17;17.10;68.00
674;DHT22;319;48.764;9.174;2024-03-02T14:48:44;17.10;66.20
674;DHT22;319;48.764;9.174;2024-03-02T14:51:12;16.90;65.90
674;DHT22;319;48.764;9.174;2024-03-02T14:53:39;16.90;66.20
674;DHT22;319;48.764;9.174;2024-03-02T14:56:07;16.90;66.60
674;DHT22;319;48.764;9.174;2024-03-02T14:58:35;16.90;67.20
674;DHT22;319;48.764;9.174;2024-03-02T15:01:03;16.90;66.60
674;DHT22;319;48.764;9.174;2024-03-02T15:03:31;16.90;65.40
674;DHT22;319;48.764;9.174;2024-03-02T15:05:58;16.80;65.70
674;DHT22;319;48.764;9.174;2024-03-02T15:08:25;16.80;65.40
674;DHT22;319;48.764;9.174;2024-03-02T15:10:52;16.70;65.00
674;DHT22;319;48.764;9.174;2024-03-02T15:13:22;16.70;65.20
674;DHT22;319;48.764;9.174;2024-03-02T15:15:50;16.60;65.10
674;DHT22;319;48.764;9.174;2024-03-02T15:18:17;16.60;65.40
674;DHT22;319;48.764;9.174;2024-03-02T15:20:45;16.70;65.10
674;DHT22;319;48.764;9.174;2024-03-02T15:23:11;16.60;64.90
674;DHT22;319;48.764;9.174;2024-03-02T15:25:39;16.60;65.10
674;DHT22;319;48.764;9.174;2024-03-02T15:28:06;16.60;66.10
674;DHT22;319;48.764;9.174;2024-03-02T15:30:34;16.60;65.20
674;DHT22;319;48.764;9.174;2024-03-02T15:33:02;16.50;64.70
674;DHT22;319;48.764;9.174;2024-03-02T15:35:29;16.40;64.70
674;DHT22;319;48.764;9.174;2024-03-02T15:37:56;16.40;64.90
674;DHT22;319;48.764;9.174;2024-03-02T15:40:22;16.30;64.50
674;DHT22;319;48.764;9.174;2024-03-02T15:42:49;16.30;64.70
674;DHT22;319;48.764;9.174;2024-03-02T15:45:16;16.30;64.60
674;DHT22;319;48.764;9.174;2024-03-02T15:47:45;16.30;65.00
674;DHT22;319;48.764;9.174;2024-03-02T15:50:12;16.00;81.50
674;DHT22;319;48.764;9.174;2024-03-02T15:52:40;16.20;64.70
674;DHT22;319;48.764;9.174;2024-03-02T15:55:08;16.10;64.90
674;DHT22;319;48.764;9.174;2024-03-02T15:57:35;16.00;65.20
674;DHT22;319;48.764;9.174;2024-03-02T16:00:03;15.90;84.20
674;DHT22;319;48.764;9.174;2024-03-02T16:02:30;16.00;66.20
674;DHT22;319;48.764;9.174;2024-03-02T16:04:59;15.90;68.20
674;DHT22;319;48.764;9.174;2024-03-02T16:07:26;15.80;68.00
674;DHT22;319;48.764;9.174;2024-03-02T16:09:53;15.80;68.70
674;DHT22;319;48.764;9.174;2024-03-02T16:14:48;15.70;68.70
674;DHT22;319;48.764;9.174;2024-03-02T16:17:15;15.30;89.60
674;DHT22;319;48.764;9.174;2024-03-02T16:22:10;15.50;70.30
674;DHT22;319;48.764;9.174;2024-03-02T16:24:37;15.40;71.80
674;DHT22;319;48.764;9.174;2024-03-02T16:27:04;15.30;72.50
674;DHT22;319;48.764;9.174;2024-03-02T16:34:27;15.30;73.40
674;DHT22;319;48.764;9.174;2024-03-02T16:36:54;15.30;74.30
674;DHT22;319;48.764;9.174;2024-03-02T16:39:23;15.30;75.10
674;DHT22;319;48.764;9.174;2024-03-02T16:41:50;15.20;76.10
674;DHT22;319;48.764;9.174;2024-03-02T16:44:17;15.20;76.60
674;DHT22;319;48.764;9.174;2024-03-02T16:49:12;15.40;92.20
674;DHT22;319;48.764;9.174;2024-03-02T16:51:40;15.20;77.80
674;DHT22;319;48.764;9.174;2024-03-02T16:54:07;15.20;78.60
674;DHT22;319;48.764;9.174;2024-03-02T16:56:42;15.20;79.30
674;DHT22;319;48.764;9.174;2024-03-02T16:59:10;15.00;90.70
674;DHT22;319;48.764;9.174;2024-03-02T17:01:37;15.00;80.90
674;DHT22;319;48.764;9.174;2024-03-02T17:04:04;15.00;81.60
674;DHT22;319;48.764;9.174;2024-03-02T17:06:32;14.90;82.50
674;DHT22;319;48.764;9.174;2024-03-02T17:09:02;14.80;83.10
674;DHT22;319;48.764;9.174;2024-03-02T17:13:59;14.80;82.70
674;DHT22;319;48.764;9.174;2024-03-02T17:16:26;14.80;84.50
674;DHT22;319;48.764;9.174;2024-03-02T17:18:53;14.80;85.20
674;DHT22;319;48.764;9.174;2024-03-02T17:21:20;14.70;85.80
674;DHT22;319;48.764;9.174;2024-03-02T17:31:14;14.20;97.30
674;DHT22;319;48.764;9.174;2024-03-02T17:33:41;14.30;89.50
674;DHT22;319;48.764;9.174;2024-03-02T17:41:03;14.10;90.20
674;DHT22;319;48.764;9.174;2024-03-02T17:43:31;14.10;91.10
674;DHT22;319;48.764;9.174;2024-03-02T17:48:26;14.10;91.10
674;DHT22;319;48.764;9.174;2024-03-02T17:50:54;14.10;92.20
674;DHT22;319;48.764;9.174;2024-03-02T17:53:21;14.10;92.20
674;DHT22;319;48.764;9.174;2024-03-02T17:58:15;14.10;92.70
674;DHT22;319;48.764;9.174;2024-03-02T18:05:39;14.10;93.60
674;DHT22;319;48.764;9.174;2024-03-02T18:08:06;14.10;94.30
674;DHT22;319;48.764;9.174;2024-03-02T18:22:51;14.10;94.80
674;DHT22;319;48.764;9.174;2024-03-02T18:27:47;14.00;95.00
674;DHT22;319;48.764;9.174;2024-03-02T18:30:15;14.00;95.50
674;DHT22;319;48.764;9.174;2024-03-02T18:32:42;14.00;95.50
674;DHT22;319;48.764;9.174;2024-03-02T18:35:09;14.00;96.00
674;DHT22;319;48.764;9.174;2024-03-02T18:37:36;14.00;99.90
674;DHT22;319;48.764;9.174;2024-03-02T18:40:06;15.20;96.70
674;DHT22;319;48.764;9.174;2024-03-02T18:52:30;14.10;96.50
674;DHT22;319;48.764;9.174;2024-03-02T18:57:29;13.80;99.90
674;DHT22;319;48.764;9.174;2024-03-02T18:59:56;13.60;96.60
674;DHT22;319;48.764;9.174;2024-03-02T19:02:24;13.80;96.70
674;DHT22;319;48.764;9.174;2024-03-02T19:04:51;14.00;97.00
674;DHT22;319;48.764;9.174;2024-03-02T19:09:46;13.50;96.70
674;DHT22;319;48.764;9.174;2024-03-02T19:14:42;13.60;99.90
674;DHT22;319;48.764;9.174;2024-03-02T19:17:09;13.50;97.60
674;DHT22;319;48.764;9.174;2024-03-02T19:24:35;13.50;97.10
674;DHT22;319;48.764;9.174;2024-03-02T19:27:06;13.80;97.80
674;DHT22;319;48.764;9.174;2024-03-02T19:29:33;13.50;97.70
674;DHT22;319;48.764;9.174;2024-03-02T19:32:02;13.50;97.90
674;DHT22;319;48.764;9.174;2024-03-02T19:34:29;13.20;99.90
674;DHT22;319;48.764;9.174;2024-03-02T19:44:21;13.40;97.40
674;DHT22;319;48.764;9.174;2024-03-02T19:49:20;13.40;99.90
674;DHT22;319;48.764;9.174;2024-03-02T19:54:17;13.80;98.00
674;DHT22;319;48.764;9.174;2024-03-02T19:56:44;13.20;98.10
674;DHT22;319;48.764;9.174;2024-03-02T20:01:39;13.10;97.90
674;DHT22;319;48.764;9.174;2024-03-02T20:06:36;13.20;99.90
674;DHT22;319;48.764;9.174;2024-03-02T20:09:06;13.00;99.90
674;DHT22;319;48.764;9.174;2024-03-02T20:14:09;12.90;98.40
674;DHT22;319;48.764;9.174;2024-03-02T20:16:36;12.80;99.10
674;DHT22;319;48.764;9.174;2024-03-02T20:23:59;12.60;98.90
674;DHT22;319;48.764;9.174;2024-03-02T20:28:54;12.50;99.20
674;DHT22;319;48.764;9.174;2024-03-02T20:31:22;12.40;99.90
674;DHT22;319;48.764;9.174;2024-03-02T20:33:49;12.30;99.80
674;DHT22;319;48.764;9.174;2024-03-02T20:38:43;12.30;99.70
674;DHT22;319;48.764;9.174;2024-03-02T20:41:15;12.20;99.90
674;DHT22;319;48.764;9.174;2024-03-02T20:43:42;12.20;99.90
674;DHT22;319;48.764;9.174;2024-03-02T20:46:10;12.10;99.90
674;DHT22;319;48.764;9.174;2024-03-02T20:48:37;12.10;99.90
674;DHT22;319;48.764;9.174;2024-03-02T20:51:05;12.00;99.90
674;DHT22;319;48.764;9.174;2024-03-02T20:53:33;11.90;99.90
674;DHT22;319;48.764;9.174;2024-03-02T20:56:00;11.90;99.90
674;DHT22;319;48.764;9.174;2024-03-02T20:58:32;11.80;99.90
674;DHT22;319;48.764;9.174;2024-03-02T21:00:59;11.80;99.90
674;DHT22;319;48.764;9.174;2024-03-02T21:03:26;11.80;99.90
674;DHT22;319;48.764;9.174;2024-03-02T21:05:53;11.70;99.90
674;DHT22;319;48.764;9.174;2024-03-02T21:08:20;11.60;99.90
674;DHT22;319;48.764;9.174;2024-03-02T21:10:50;11.60;99.90
674;DHT22;319;48.764;9.174;2024-03-02T21:13:17;11.40;99.90
674;DHT22;319;48.764;9.174;2024-03-02T21:15:45;11.40;99.90
674;DHT22;319;48.764;9.174;2024-03-02T21:18:15;11.30;99.90